createdAt,value
2022-11-13T00:01:54.703Z,68.50
2022-11-13T00:07:20.108Z,68.90
2022-11-13T00:12:45.794Z,68.40
2022-11-13T00:18:09.322Z,68.70
2022-11-13T00:23:34.887Z,68.60
2022-11-13T00:29:02.618Z,68.40
2022-11-13T00:34:46.311Z,68.50
2022-11-13T00:40:07.888Z,68.30
2022-11-13T00:45:30.442Z,68.20
2022-11-13T00:50:53.406Z,68.20
2022-11-13T00:56:15.355Z,68.20
2022-11-13T01:01:37.738Z,68.60
2022-11-13T01:07:00.712Z,68.00
2022-11-13T01:12:23.052Z,68.00
2022-11-13T01:17:45.571Z,67.90
2022-11-13T01:23:08.348Z,67.90
2022-11-13T01:28:30.683Z,67.90
2022-11-13T01:33:53.944Z,68.00
2022-11-13T01:39:16.602Z,67.90
2022-11-13T01:44:52.474Z,67.90
2022-11-13T01:50:15.427Z,67.80
2022-11-13T01:55:38.082Z,67.70
2022-11-13T02:01:00.639Z,67.80
2022-11-13T02:06:24.527Z,68.00
2022-11-13T02:11:47.287Z,67.00
2022-11-13T02:17:14.748Z,66.10
2022-11-13T02:23:01.455Z,65.70
2022-11-13T02:28:23.906Z,65.40
2022-11-13T02:33:46.256Z,65.20
2022-11-13T02:39:11.333Z,65.00
2022-11-13T02:44:33.518Z,64.80
2022-11-13T02:49:56.729Z,64.90
2022-11-13T02:55:19.750Z,64.40
2022-11-13T03:00:42.109Z,64.30
2022-11-13T03:06:04.554Z,64.10
2022-11-13T03:11:27.315Z,64.00
2022-11-13T03:16:49.871Z,63.90
2022-11-13T03:22:12.425Z,63.80
2022-11-13T03:27:34.777Z,63.80
2022-11-13T03:32:58.146Z,63.70
2022-11-13T03:38:20.295Z,63.50
2022-11-13T03:43:43.049Z,63.30
2022-11-13T03:49:05.401Z,63.20
2022-11-13T03:54:27.958Z,63.40
2022-11-13T03:59:50.104Z,63.70
2022-11-13T04:05:12.352Z,64.40
2022-11-13T04:10:34.703Z,64.30
2022-11-13T04:15:56.949Z,65.20
2022-11-13T04:21:19.401Z,64.60
2022-11-13T04:26:41.956Z,64.90
2022-11-13T04:32:04.612Z,64.90
2022-11-13T04:37:27.065Z,65.10
2022-11-13T04:42:49.111Z,65.20
2022-11-13T04:48:11.459Z,65.40
2022-11-13T04:53:35.038Z,65.80
2022-11-13T04:58:57.183Z,65.80
2022-11-13T05:04:19.940Z,65.90
2022-11-13T05:09:42.496Z,65.90
2022-11-13T05:15:05.357Z,66.00
2022-11-13T05:20:27.604Z,66.10
2022-11-13T05:25:50.063Z,66.10
2022-11-13T05:31:15.272Z,66.10
2022-11-13T05:36:38.338Z,66.20
2022-11-13T05:42:00.996Z,66.30
2022-11-13T05:47:25.082Z,66.50
2022-11-13T05:52:48.461Z,66.60
2022-11-13T05:58:13.166Z,66.40
2022-11-13T06:03:36.433Z,66.50
2022-11-13T06:09:01.088Z,66.40
2022-11-13T06:14:23.490Z,66.40
2022-11-13T06:19:46.147Z,66.60
2022-11-13T06:25:08.840Z,66.50
2022-11-13T06:30:31.471Z,66.60
2022-11-13T06:35:54.224Z,66.40
2022-11-13T06:41:19.360Z,66.70
2022-11-13T06:46:41.889Z,66.70
2022-11-13T06:52:04.445Z,66.70
2022-11-13T06:57:27.002Z,66.30
2022-11-13T07:02:53.885Z,66.70
2022-11-13T07:08:20.709Z,67.20
2022-11-13T07:13:44.284Z,66.70
2022-11-13T07:19:11.237Z,67.00
2022-11-13T07:24:37.145Z,66.70
2022-11-13T07:30:04.253Z,66.70
2022-11-13T07:35:34.160Z,66.90
2022-11-13T07:40:59.195Z,66.90
2022-11-13T07:46:23.192Z,66.90
2022-11-13T07:51:45.499Z,66.90
2022-11-13T07:57:13.079Z,67.00
2022-11-13T08:02:37.790Z,67.00
2022-11-13T08:08:00.837Z,66.90
2022-11-13T08:13:26.773Z,66.20
2022-11-13T08:18:51.461Z,65.70
2022-11-13T08:24:24.789Z,64.80
2022-11-13T08:30:03.149Z,64.50
2022-11-13T08:35:29.383Z,64.10
2022-11-13T08:41:08.359Z,63.80
2022-11-13T08:46:56.720Z,63.60
2022-11-13T08:52:26.122Z,63.60
2022-11-13T08:57:51.940Z,63.10
2022-11-13T09:03:25.706Z,63.00
2022-11-13T09:08:57.008Z,62.90
2022-11-13T09:14:39.113Z,62.80
2022-11-13T09:20:22.993Z,62.50
2022-11-13T09:26:14.767Z,62.50
2022-11-13T09:31:41.549Z,62.40
2022-11-13T09:37:03.717Z,62.30
2022-11-13T09:42:29.189Z,62.30
2022-11-13T09:47:53.656Z,62.30
2022-11-13T09:53:17.367Z,62.10
2022-11-13T09:58:50.563Z,62.30
2022-11-13T10:04:16.392Z,63.30
2022-11-13T10:10:01.271Z,62.50
2022-11-13T10:15:27.165Z,62.90
2022-11-13T10:21:09.431Z,62.40
2022-11-13T10:26:36.001Z,62.60
2022-11-13T10:32:54.548Z,62.80
2022-11-13T10:38:46.329Z,62.50
2022-11-13T10:44:35.556Z,62.50
2022-11-13T10:50:09.988Z,62.50
2022-11-13T10:55:41.207Z,62.20
2022-11-13T11:01:15.029Z,62.10
2022-11-13T11:12:34.104Z,62.10
2022-11-13T11:18:07.124Z,62.30
2022-11-13T11:24:03.552Z,62.80
2022-11-13T11:29:39.716Z,62.40
2022-11-13T11:35:28.170Z,62.20
2022-11-13T11:40:58.049Z,62.40
2022-11-13T11:46:29.719Z,62.70
2022-11-13T11:52:12.970Z,62.70
2022-11-13T11:58:27.413Z,62.50
2022-11-13T12:04:05.216Z,62.10
2022-11-13T12:09:32.521Z,62.20
2022-11-13T12:15:16.314Z,62.10
2022-11-13T12:20:45.828Z,62.00
2022-11-13T12:26:45.745Z,62.60
2022-11-13T12:32:28.862Z,62.60
2022-11-13T12:37:53.972Z,62.60
2022-11-13T12:43:16.835Z,62.90
2022-11-13T12:48:50.347Z,62.50
2022-11-13T12:54:13.313Z,62.40
2022-11-13T12:59:45.251Z,62.30
2022-11-13T13:05:13.882Z,62.20
2022-11-13T13:10:56.683Z,61.60
2022-11-13T13:16:28.340Z,61.70
2022-11-13T13:21:51.408Z,61.70
2022-11-13T13:27:38.937Z,61.60
2022-11-13T13:33:16.005Z,61.80
2022-11-13T13:38:56.482Z,61.80
2022-11-13T13:44:53.422Z,62.00
2022-11-13T13:50:22.000Z,61.90
2022-11-13T13:55:56.673Z,61.70
2022-11-13T14:01:56.291Z,62.10
2022-11-13T14:07:38.959Z,61.70
2022-11-13T14:13:01.103Z,62.00
2022-11-13T14:18:24.010Z,62.40
2022-11-13T14:23:50.311Z,63.70
2022-11-13T14:29:46.222Z,63.30
2022-11-13T14:35:20.847Z,63.30
2022-11-13T14:40:55.703Z,64.50
2022-11-13T14:46:44.643Z,64.80
2022-11-13T14:52:07.402Z,65.10
2022-11-13T14:57:30.369Z,64.30
2022-11-13T15:02:57.357Z,64.40
2022-11-13T15:08:36.153Z,64.20
2022-11-13T15:14:20.149Z,63.70
2022-11-13T15:19:51.774Z,64.40
2022-11-13T15:25:21.161Z,63.80
2022-11-13T15:30:55.497Z,63.80
2022-11-13T15:36:47.823Z,64.30
2022-11-13T15:42:23.202Z,63.50
2022-11-13T15:47:59.539Z,63.50
2022-11-13T15:53:23.119Z,63.50
2022-11-13T15:59:03.177Z,63.60
2022-11-13T16:04:55.949Z,63.50
2022-11-13T16:10:31.799Z,63.50
2022-11-13T16:16:06.200Z,63.70
2022-11-13T16:21:53.147Z,63.50
2022-11-13T16:27:23.644Z,63.30
2022-11-13T16:32:58.019Z,63.20
2022-11-13T16:38:34.132Z,62.80
2022-11-13T16:44:00.579Z,62.80
2022-11-13T16:49:43.563Z,63.70
2022-11-13T16:55:11.360Z,64.70
2022-11-13T17:00:42.503Z,64.80
2022-11-13T17:06:27.158Z,64.60
2022-11-13T17:11:50.452Z,64.80
2022-11-13T17:17:21.702Z,64.50
2022-11-13T17:22:49.376Z,64.80
2022-11-13T17:28:14.416Z,64.30
2022-11-13T17:33:41.342Z,64.00
2022-11-13T17:39:12.881Z,63.00
2022-11-13T17:45:04.298Z,62.70
2022-11-13T17:50:35.505Z,62.60
2022-11-13T17:56:14.153Z,62.60
2022-11-13T18:01:54.417Z,62.80
2022-11-13T18:07:40.438Z,62.30
2022-11-13T18:13:09.104Z,62.20
2022-11-13T18:18:45.411Z,61.80
2022-11-13T18:24:21.217Z,61.50
2022-11-13T18:29:46.171Z,61.30
2022-11-13T18:35:17.147Z,61.20
2022-11-13T18:41:06.277Z,61.50
2022-11-13T18:46:35.077Z,61.20
2022-11-13T18:52:06.227Z,61.50
2022-11-13T18:57:39.985Z,61.80
2022-11-13T19:03:17.242Z,62.80
2022-11-13T19:08:41.720Z,63.30
2022-11-13T19:14:18.531Z,63.80
2022-11-13T19:20:00.807Z,63.60
2022-11-13T19:25:41.169Z,63.60
2022-11-13T19:31:11.986Z,63.70
2022-11-13T19:36:42.233Z,63.80
2022-11-13T19:42:07.230Z,63.80
2022-11-13T19:47:32.693Z,64.50
2022-11-13T19:52:55.023Z,65.00
2022-11-13T19:58:17.577Z,65.20
2022-11-13T20:03:48.021Z,65.20
2022-11-13T20:09:11.382Z,65.20
2022-11-13T20:14:49.805Z,64.80
2022-11-13T20:20:15.636Z,64.60
2022-11-13T20:26:07.163Z,64.70
2022-11-13T20:31:34.433Z,64.70
2022-11-13T20:37:00.434Z,66.70
2022-11-13T20:42:28.198Z,65.70
2022-11-13T20:48:01.957Z,65.60
2022-11-13T20:53:26.966Z,65.00
2022-11-13T20:58:59.514Z,64.60
2022-11-13T21:04:23.311Z,64.50
2022-11-13T21:09:50.197Z,64.60
2022-11-13T21:15:19.061Z,64.60
2022-11-13T21:20:48.689Z,64.70
2022-11-13T21:26:19.315Z,64.80
2022-11-13T21:31:42.480Z,65.00
2022-11-13T21:37:21.721Z,65.10
2022-11-13T21:42:44.064Z,65.10
2022-11-13T21:48:06.794Z,66.80
2022-11-13T21:53:29.483Z,66.40
2022-11-13T21:58:51.631Z,66.20
2022-11-13T22:04:14.283Z,66.10
2022-11-13T22:09:42.394Z,66.10
2022-11-13T22:15:05.092Z,66.20
2022-11-13T22:20:27.635Z,66.10
2022-11-13T22:25:57.981Z,66.20
2022-11-13T22:31:25.712Z,66.10
2022-11-13T22:36:48.082Z,66.00
2022-11-13T22:42:10.757Z,66.00
2022-11-13T22:47:38.056Z,66.20
2022-11-13T22:53:04.456Z,66.20
2022-11-13T22:58:32.641Z,66.20
2022-11-13T23:03:58.046Z,66.20
2022-11-13T23:09:30.582Z,66.30
2022-11-13T23:14:55.274Z,66.20
2022-11-13T23:20:18.698Z,66.20
2022-11-13T23:25:46.538Z,66.30
2022-11-13T23:31:11.452Z,65.80
2022-11-13T23:36:34.828Z,65.40
2022-11-13T23:41:57.599Z,65.10
2022-11-13T23:47:20.144Z,68.70
2022-11-13T23:52:42.595Z,66.00
2022-11-13T23:58:08.131Z,65.40
